Main page
METAR-TAF:

METAR-TAF

Airports :

Neuburg, Germany

Neuburg Air Base

latitude: 48-43N, longitude: 011-13E, elevation: 380 m

Current weather observation

The report was made 56 minutes ago, at 18:20 UTC
Wind 1 kt from the South
Temperature 3°C
Humidity 87%
Pressure 1025 hPa
Visibility: 5000 m
Broken clouds at a height of 1000 ft
Broken clouds at a height of 1700 ft
mist

METAR: ETSN 171820Z 19001KT 5000 BR BKN010 BKN017 03/01 Q1025 GRN

Time: 20:16 (19:16 UTC)

Forecast

The report was made 2 hours and 16 minutes ago, at 17:00 UTC
Forecast valid from 17 at 18 UTC to 18 at 03 UTC
Wind 3 kt from the Southwest
Visibility: 7000 m
Scattered clouds at a height of 600 ft
Broken clouds at a height of 1000 ft
Temporary
from 17 at 18 UTC to 18 at 03 UTC
Wind 2 kt from variable directions
Visibility: 4000 m
Scattered clouds at a height of 300 ft
Broken clouds at a height of 500 ft
light drizzle

TAF: ETSN 171700Z 1718/1803 22003KT 7000 NSW SCT006 BKN010 TEMPO 1718/1803 VRB02KT 4000 -DZ SCT003 BKN005 BY ETGL

Weather observations and forecasts of more than 4000 airports (METAR and TAF reports).

The available stations are represented by yellow and red dots on the map.

Hover mouse over dot to see the name of the station.

Then click to see weather observations and forecasts.

To change the map : click on the green buttons with a black cross to zoom in, on the green button with a dash to zoom out, or on the green arrows for adjacent maps.


METAR-TAF: